»·PEaware :: WAT380 KPDX-KACV

WAT380 :: KPDX-KACV

FLIGHT INFORMATION

Flight Status: Arrived
Operator:
Walker Air Transport
More flights by this operator :: More flights under this callsign
Pilot: Spencer M. (27733)
Aircraft: BOEING 737-600
(B736)
More flights by this aircraft type
Origin: KPDX Portland Intl
United States
Destination: KACV Arcata
United States
More flights between these airports :: More routes between these airports
Route: HRMNS5 HRMNS VIDAS RBG CEC V27 HOCUT
File this flight plan on PilotEdge
Remarks:
Altitude:
(Current/Filed)
30,000ft
Speed:
(Current/Filed)
450kts
Departed: 18-Oct-22 06:33 PM
Arrived: 18-Oct-22 07:35 PM
Distance/Time
Traveled:
284nm/1:02
Distance/Time
To Go:
Arrived

Flight Plot

Page will automatically refresh every two minutes.

Flight plan parsing failed; only flown route is shown


Map Options




Map Legend


Flown Route
Filed Route
Departure Airport
Arrival Airport
Navaid (VOR, NDB)
Fix

Horizontal Profiles

Position Reports

Time Latitude Longitude Heading Altitude Ground
Speed
18-Oct-22 18:13 45.591019 -122.596266 6 25ft 0kts
18-Oct-22 18:14 45.591019 -122.596266 6 25ft 0kts
18-Oct-22 18:15 45.591019 -122.596266 6 25ft 0kts
18-Oct-22 18:16 45.591019 -122.596266 6 25ft 0kts
18-Oct-22 18:17 45.591019 -122.596266 6 25ft 0kts
18-Oct-22 18:18 45.591019 -122.596266 6 25ft 0kts
18-Oct-22 18:19 45.591019 -122.596266 6 25ft 0kts
18-Oct-22 18:20 45.591019 -122.596266 6 25ft 0kts
18-Oct-22 18:21 45.591019 -122.596266 6 25ft 0kts
18-Oct-22 18:22 45.591019 -122.596266 6 25ft 0kts
18-Oct-22 18:23 45.591019 -122.596266 6 25ft 0kts
18-Oct-22 18:24 45.591019 -122.596266 6 25ft 0kts
18-Oct-22 18:25 45.591019 -122.596266 6 25ft 0kts
18-Oct-22 18:26 45.590988 -122.596265 17 25ft 1kts
18-Oct-22 18:27 45.590442 -122.596538 17 25ft 0kts
18-Oct-22 18:28 45.590281 -122.596416 297 25ft 0kts
18-Oct-22 18:29 45.590281 -122.596416 297 25ft 0kts
18-Oct-22 18:30 45.590319 -122.596536 293 25ft 3kts
18-Oct-22 18:31 45.591759 -122.599427 315 25ft 11kts
18-Oct-22 18:32 45.594169 -122.597868 44 28ft 10kts
18-Oct-22 18:33 45.593688 -122.592819 119 25ft 72kts
18-Oct-22 18:34 45.574387 -122.537336 99 935ft 209kts
18-Oct-22 18:35 45.562528 -122.441635 103 3514ft 264kts
18-Oct-22 18:36 45.539028 -122.341182 129 6819ft 277kts
18-Oct-22 18:37 45.466412 -122.308203 184 9755ft 291kts
18-Oct-22 18:38 45.378755 -122.322159 185 11793ft 334kts
18-Oct-22 18:38 45.299570 -122.333296 186 14115ft 344kts
18-Oct-22 18:39 45.203110 -122.348424 187 15003ft 348kts
18-Oct-22 18:40 45.106784 -122.365338 187 15000ft 349kts
18-Oct-22 18:42 44.993448 -122.384395 186 16407ft 358kts
18-Oct-22 18:43 44.894189 -122.408969 193 18637ft 371kts
18-Oct-22 18:44 44.791501 -122.442722 193 20704ft 385kts
18-Oct-22 18:44 44.703448 -122.471576 193 22298ft 397kts
18-Oct-22 18:45 44.594317 -122.507595 193 23216ft 404kts
18-Oct-22 18:46 44.484400 -122.543350 193 23221ft 405kts
18-Oct-22 18:47 44.374231 -122.579168 193 23246ft 405kts
18-Oct-22 18:48 44.264253 -122.614829 193 23277ft 408kts
18-Oct-22 18:49 44.154307 -122.658530 204 25038ft 418kts
18-Oct-22 18:50 44.049263 -122.731692 207 26698ft 429kts
18-Oct-22 18:51 43.942227 -122.809011 207 28231ft 439kts
18-Oct-22 18:52 43.833161 -122.887841 207 29580ft 448kts
18-Oct-22 18:53 43.722331 -122.967713 207 30249ft 454kts
18-Oct-22 18:54 43.609029 -123.049050 207 30233ft 466kts
18-Oct-22 18:55 43.493175 -123.131864 207 30219ft 470kts
18-Oct-22 18:56 43.377146 -123.214446 207 30219ft 469kts
18-Oct-22 18:57 43.261297 -123.296544 207 30219ft 469kts
18-Oct-22 18:58 43.145315 -123.376858 205 30210ft 470kts
18-Oct-22 18:59 43.026748 -123.453237 205 30184ft 470kts
18-Oct-22 19:00 42.908694 -123.529189 205 30183ft 469kts
18-Oct-22 19:01 42.790256 -123.605150 205 30182ft 469kts
18-Oct-22 19:02 42.672723 -123.680249 205 30183ft 468kts
18-Oct-22 19:03 42.554870 -123.755244 205 30183ft 468kts
18-Oct-22 19:04 42.436890 -123.830001 205 30182ft 467kts
18-Oct-22 19:05 42.319507 -123.904068 205 30183ft 466kts
18-Oct-22 19:06 42.203135 -123.977196 204 28877ft 457kts
18-Oct-22 19:07 42.087515 -124.049556 204 26760ft 459kts
18-Oct-22 19:08 41.972514 -124.121262 204 24352ft 450kts
18-Oct-22 19:09 41.864887 -124.188051 204 20804ft 413kts
18-Oct-22 19:10 41.761034 -124.237440 187 17038ft 387kts
18-Oct-22 19:11 41.656970 -124.240087 179 13368ft 363kts
18-Oct-22 19:12 41.559588 -124.239587 179 10029ft 341kts
18-Oct-22 19:13 41.462843 -124.239063 178 10008ft 350kts
18-Oct-22 19:14 41.365809 -124.238445 178 10004ft 349kts
18-Oct-22 19:15 41.270386 -124.237984 179 10003ft 338kts
18-Oct-22 19:16 41.176474 -124.238537 179 10000ft 338kts
18-Oct-22 19:17 41.082294 -124.239027 179 9999ft 338kts
18-Oct-22 19:18 40.994304 -124.239546 179 9999ft 305kts
18-Oct-22 19:19 40.913363 -124.240401 179 8671ft 278kts
18-Oct-22 19:20 40.841779 -124.211880 153 6304ft 270kts
18-Oct-22 19:21 40.774559 -124.169125 153 5998ft 269kts
18-Oct-22 19:22 40.707224 -124.126222 153 5999ft 269kts
18-Oct-22 19:23 40.640140 -124.083145 153 5999ft 269kts
18-Oct-22 19:24 40.578824 -124.030984 107 5999ft 265kts
18-Oct-22 19:25 40.597511 -123.950238 64 5999ft 230kts
18-Oct-22 19:26 40.648852 -123.917858 354 5987ft 227kts
18-Oct-22 19:27 40.708351 -123.932687 341 5993ft 219kts
18-Oct-22 19:28 40.763807 -123.964234 335 4899ft 215kts
18-Oct-22 19:29 40.814718 -123.997626 333 3742ft 197kts
18-Oct-22 19:30 40.861034 -124.028909 333 2683ft 164kts
18-Oct-22 19:31 40.901404 -124.056218 334 1804ft 144kts
18-Oct-22 19:32 40.937036 -124.080350 334 1016ft 131kts
18-Oct-22 19:33 40.967735 -124.101447 324 420ft 130kts
18-Oct-22 19:34 40.984909 -124.112901 312 231ft 11kts
18-Oct-22 19:35 40.984748 -124.113572 187 231ft 0kts
18-Oct-22 19:36 40.984717 -124.113571 180 231ft 2kts

Navigation Log

Ident Type
Flight plan parsing failed, navigation log unavailable